Terminal Aerodrome Forecast
Issued by NWS Bismarck, ND

Home | Current Version | Previous Version | Graphics & Text | Print | Product List | Glossary On
Versions: 1 2 3 4 5 6 7 8 9 10 11 12 13 14 15 16 17 18 19 20 21 22
058
FTUS43 KBIS 240218 AAB
TAFBIS
TAF AMD
KBIS 240218Z 2402/2424 08011KT 5SM BR VCTS BKN006 OVC010CB
      TEMPO 2402/2406 3SM -SHRA BR BKN003 OVC006
     FM240600 11011KT 2SM BR BKN011 OVC025
      TEMPO 2406/2408 FEW030 SCT200
     FM240800 12011KT P6SM VCFG SCT200 WS020/16040KT
     FM241600 16011KT P6SM SCT045
     FM241800 18015G22KT P6SM BKN050=

USA.gov is the U.S. government's official web portal to all federal, state and local government web resources and services.